ウランバートル の空港の天気 - METARとTAF

チンギスハーン国際空港 ( ZMUB / ULN ) - モンゴル ウランバートル
飛行場実況気象(Metar)
観測時間08/17 19:30 ULAT (08/17 11:30 UTC)
風向・風速不定 1m/s
視程10km以上
天気現象
少しの雲 雲底高度 1010m
全天の4割程度の雲 雲底高度 3050m
気温17℃
湿度72%
気圧1008hPa
METARZMUB 171130Z VRB01MPS 9999 FEW033 SCT100 17/12 Q1008 NOSIG RMK QFE649.8 68 MOP
過去の天気等 Google飛行場航空写真 Wunderground天気予報

過去48時間のMETAR

飛行場予報(TAF)
発表時間: 8/17 18:40 ULAT (8/17 10:40 UTC)
予報対象時間: 17日20時 ULAT ~ 19日2時 ULAT
風向・風速不定 2m/s
視程10km以上
少しの積乱雲 雲底高度 910m
全天の4割程度の雲 雲底高度 1010m
18日11時 ULAT ~ 18日13時 ULAT に徐々に
風向・風速北北西 5m/s
18日17時 ULAT ~ 18日19時 ULAT に徐々に
風向・風速不定 2m/s
TAF ZMUB 171040Z 1712/1818 VRB02MPS 9999 FEW030CB SCT033 TN05/1721Z TX22/1807Z
BECMG 1803/1805 33005MPS
BECMG 1809/1811 VRB02MPS